sensor_id;sensor_type;location;lat;lon;timestamp;pressure;altitude;pressure_sealevel;temperature;humidity
34925;BME280;21130;51.728;8.748;2023-04-25T00:01:12;99644.13;;;5.08;100.00
34925;BME280;21130;51.728;8.748;2023-04-25T00:03:39;99640.28;;;5.09;100.00
34925;BME280;21130;51.728;8.748;2023-04-25T00:06:06;99645.34;;;5.12;100.00
34925;BME280;21130;51.728;8.748;2023-04-25T00:08:32;99646.19;;;5.12;100.00
34925;BME280;21130;51.728;8.748;2023-04-25T00:11:00;99644.88;;;5.15;100.00
34925;BME280;21130;51.728;8.748;2023-04-25T00:13:26;99644.88;;;5.15;100.00
34925;BME280;21130;51.728;8.748;2023-04-25T00:15:54;99637.31;;;5.10;100.00
34925;BME280;21130;51.728;8.748;2023-04-25T00:18:21;99647.50;;;5.10;100.00
34925;BME280;21130;51.728;8.748;2023-04-25T00:20:48;99642.34;;;5.13;100.00
34925;BME280;21130;51.728;8.748;2023-04-25T00:23:15;99642.59;;;5.12;100.00
34925;BME280;21130;51.728;8.748;2023-04-25T00:25:43;99637.94;;;5.12;100.00
34925;BME280;21130;51.728;8.748;2023-04-25T00:28:10;99644.28;;;5.13;100.00
34925;BME280;21130;51.728;8.748;2023-04-25T00:30:37;99641.16;;;5.09;100.00
34925;BME280;21130;51.728;8.748;2023-04-25T00:33:05;99636.50;;;5.10;100.00
34925;BME280;21130;51.728;8.748;2023-04-25T00:35:31;99632.91;;;5.09;100.00
34925;BME280;21130;51.728;8.748;2023-04-25T00:37:58;99632.03;;;5.09;100.00
34925;BME280;21130;51.728;8.748;2023-04-25T00:40:24;99633.34;;;5.06;100.00
34925;BME280;21130;51.728;8.748;2023-04-25T00:42:51;99633.13;;;5.08;100.00
34925;BME280;21130;51.728;8.748;2023-04-25T00:45:19;99630.16;;;5.09;100.00
34925;BME280;21130;51.728;8.748;2023-04-25T00:47:46;99632.66;;;5.11;100.00
34925;BME280;21130;51.728;8.748;2023-04-25T00:50:13;99631.00;;;5.10;100.00
34925;BME280;21130;51.728;8.748;2023-04-25T00:52:41;99628.47;;;5.08;100.00
34925;BME280;21130;51.728;8.748;2023-04-25T00:55:10;99627.84;;;5.06;100.00
34925;BME280;21130;51.728;8.748;2023-04-25T00:57:37;99619.59;;;5.06;100.00
34925;BME280;21130;51.728;8.748;2023-04-25T01:00:04;99622.75;;;5.10;100.00
34925;BME280;21130;51.728;8.748;2023-04-25T01:02:32;99620.47;;;5.07;100.00
34925;BME280;21130;51.728;8.748;2023-04-25T01:04:59;99621.03;;;5.09;100.00
34925;BME280;21130;51.728;8.748;2023-04-25T01:07:27;99622.75;;;5.10;100.00
34925;BME280;21130;51.728;8.748;2023-04-25T01:09:53;99621.28;;;5.07;100.00
34925;BME280;21130;51.728;8.748;2023-04-25T01:12:20;99616.00;;;5.06;100.00
34925;BME280;21130;51.728;8.748;2023-04-25T01:14:47;99620.69;;;5.05;100.00
34925;BME280;21130;51.728;8.748;2023-04-25T01:17:13;99628.09;;;5.05;100.00
34925;BME280;21130;51.728;8.748;2023-04-25T01:19:46;99625.19;;;5.00;100.00
34925;BME280;21130;51.728;8.748;2023-04-25T01:22:15;99631.13;;;4.96;100.00
34925;BME280;21130;51.728;8.748;2023-04-25T01:24:42;99625.25;;;4.93;100.00
34925;BME280;21130;51.728;8.748;2023-04-25T01:27:09;99632.06;;;4.90;100.00
34925;BME280;21130;51.728;8.748;2023-04-25T01:29:36;99631.28;;;4.83;100.00
34925;BME280;21130;51.728;8.748;2023-04-25T01:32:04;99629.38;;;4.84;100.00
34925;BME280;21130;51.728;8.748;2023-04-25T01:34:31;99624.75;;;4.84;100.00
34925;BME280;21130;51.728;8.748;2023-04-25T01:36:59;99637.88;;;4.82;100.00
34925;BME280;21130;51.728;8.748;2023-04-25T01:39:28;99631.44;;;4.70;100.00
34925;BME280;21130;51.728;8.748;2023-04-25T01:41:55;99631.91;;;4.67;100.00
34925;BME280;21130;51.728;8.748;2023-04-25T01:44:21;99633.56;;;4.68;100.00
34925;BME280;21130;51.728;8.748;2023-04-25T01:46:48;99629.16;;;4.67;100.00
34925;BME280;21130;51.728;8.748;2023-04-25T01:49:14;99629.59;;;4.64;100.00
34925;BME280;21130;51.728;8.748;2023-04-25T01:51:41;99635.34;;;4.62;100.00
34925;BME280;21130;51.728;8.748;2023-04-25T01:54:07;99641.44;;;4.64;100.00
34925;BME280;21130;51.728;8.748;2023-04-25T01:56:37;99637.84;;;4.64;100.00
34925;BME280;21130;51.728;8.748;2023-04-25T01:59:04;99642.91;;;4.67;100.00
34925;BME280;21130;51.728;8.748;2023-04-25T02:01:31;99641.00;;;4.67;100.00
34925;BME280;21130;51.728;8.748;2023-04-25T02:03:58;99647.78;;;4.65;100.00
34925;BME280;21130;51.728;8.748;2023-04-25T02:06:24;99638.31;;;4.61;100.00
34925;BME280;21130;51.728;8.748;2023-04-25T02:08:51;99642.97;;;4.60;100.00
34925;BME280;21130;51.728;8.748;2023-04-25T02:11:17;99645.94;;;4.59;100.00
34925;BME280;21130;51.728;8.748;2023-04-25T02:13:45;99651.22;;;4.60;100.00
34925;BME280;21130;51.728;8.748;2023-04-25T02:16:11;99648.31;;;4.55;100.00
34925;BME280;21130;51.728;8.748;2023-04-25T02:18:38;99652.13;;;4.54;100.00
34925;BME280;21130;51.728;8.748;2023-04-25T02:21:05;99647.06;;;4.51;100.00
34925;BME280;21130;51.728;8.748;2023-04-25T02:23:32;99647.22;;;4.56;100.00
34925;BME280;21130;51.728;8.748;2023-04-25T02:25:58;99642.59;;;4.57;100.00
34925;BME280;21130;51.728;8.748;2023-04-25T02:28:25;99652.34;;;4.52;100.00
34925;BME280;21130;51.728;8.748;2023-04-25T02:30:53;99650.22;;;4.54;100.00
34925;BME280;21130;51.728;8.748;2023-04-25T02:33:19;99655.94;;;4.53;100.00
34925;BME280;21130;51.728;8.748;2023-04-25T02:35:46;99651.94;;;4.49;100.00
34925;BME280;21130;51.728;8.748;2023-04-25T02:38:12;99658.72;;;4.46;100.00
34925;BME280;21130;51.728;8.748;2023-04-25T02:40:39;99663.22;;;4.41;100.00
34925;BME280;21130;51.728;8.748;2023-04-25T02:43:06;99652.31;;;4.34;100.00
34925;BME280;21130;51.728;8.748;2023-04-25T02:45:33;99656.78;;;4.28;100.00
34925;BME280;21130;51.728;8.748;2023-04-25T02:48:02;99658.47;;;4.29;100.00
34925;BME280;21130;51.728;8.748;2023-04-25T02:50:28;99650.44;;;4.28;100.00
34925;BME280;21130;51.728;8.748;2023-04-25T02:52:54;99657.66;;;4.29;100.00
34925;BME280;21130;51.728;8.748;2023-04-25T02:55:21;99664.44;;;4.26;100.00
34925;BME280;21130;51.728;8.748;2023-04-25T02:57:47;99661.22;;;4.29;100.00
34925;BME280;21130;51.728;8.748;2023-04-25T03:00:14;99665.03;;;4.28;100.00
34925;BME280;21130;51.728;8.748;2023-04-25T03:02:40;99669.06;;;4.26;100.00
34925;BME280;21130;51.728;8.748;2023-04-25T03:05:08;99669.69;;;4.28;100.00
34925;BME280;21130;51.728;8.748;2023-04-25T03:07:35;99670.75;;;4.27;100.00
34925;BME280;21130;51.728;8.748;2023-04-25T03:10:01;99669.06;;;4.26;100.00
34925;BME280;21130;51.728;8.748;2023-04-25T03:12:27;99673.50;;;4.27;100.00
34925;BME280;21130;51.728;8.748;2023-04-25T03:14:54;99672.88;;;4.25;100.00
34925;BME280;21130;51.728;8.748;2023-04-25T03:17:20;99667.84;;;4.22;100.00
34925;BME280;21130;51.728;8.748;2023-04-25T03:19:47;99675.63;;;4.25;100.00
34925;BME280;21130;51.728;8.748;2023-04-25T03:22:15;99671.81;;;4.26;100.00
34925;BME280;21130;51.728;8.748;2023-04-25T03:24:41;99667.84;;;4.22;100.00
34925;BME280;21130;51.728;8.748;2023-04-25T03:27:08;99676.88;;;4.29;100.00
34925;BME280;21130;51.728;8.748;2023-04-25T03:29:34;99678.16;;;4.26;100.00
34925;BME280;21130;51.728;8.748;2023-04-25T03:32:01;99683.88;;;4.25;100.00
34925;BME280;21130;51.728;8.748;2023-04-25T03:34:27;99679.22;;;4.25;100.00
34925;BME280;21130;51.728;8.748;2023-04-25T03:36:53;99681.50;;;4.28;100.00
34925;BME280;21130;51.728;8.748;2023-04-25T03:39:21;99676.88;;;4.29;100.00
34925;BME280;21130;51.728;8.748;2023-04-25T03:41:48;99687.63;;;4.30;100.00
34925;BME280;21130;51.728;8.748;2023-04-25T03:44:14;99680.00;;;4.32;100.00
34925;BME280;21130;51.728;8.748;2023-04-25T03:46:40;99685.69;;;4.31;100.00
34925;BME280;21130;51.728;8.748;2023-04-25T03:49:07;99693.09;;;4.30;100.00
34925;BME280;21130;51.728;8.748;2023-04-25T03:51:33;99692.44;;;4.35;100.00
34925;BME280;21130;51.728;8.748;2023-04-25T03:54:00;99696.47;;;4.32;100.00
34925;BME280;21130;51.728;8.748;2023-04-25T03:56:27;99697.72;;;4.37;100.00
34925;BME280;21130;51.728;8.748;2023-04-25T03:58:54;99711.47;;;4.37;100.00
34925;BME280;21130;51.728;8.748;2023-04-25T04:01:20;99716.03;;;4.43;100.00
34925;BME280;21130;51.728;8.748;2023-04-25T04:03:47;99712.69;;;4.41;100.00
34925;BME280;21130;51.728;8.748;2023-04-25T04:06:13;99724.31;;;4.36;100.00
34925;BME280;21130;51.728;8.748;2023-04-25T04:08:40;99722.03;;;4.33;100.00
34925;BME280;21130;51.728;8.748;2023-04-25T04:11:06;99724.84;;;4.26;100.00
34925;BME280;21130;51.728;8.748;2023-04-25T04:13:34;99731.00;;;4.22;100.00
34925;BME280;21130;51.728;8.748;2023-04-25T04:16:00;99731.59;;;4.24;100.00
34925;BME280;21130;51.728;8.748;2023-04-25T04:18:27;99728.66;;;4.25;100.00
34925;BME280;21130;51.728;8.748;2023-04-25T04:20:53;99735.44;;;4.23;100.00
34925;BME280;21130;51.728;8.748;2023-04-25T04:23:20;99738.81;;;4.25;100.00
34925;BME280;21130;51.728;8.748;2023-04-25T04:25:47;99740.44;;;4.32;100.00
34925;BME280;21130;51.728;8.748;2023-04-25T04:28:14;99745.25;;;4.37;100.00
34925;BME280;21130;51.728;8.748;2023-04-25T04:30:42;99742.59;;;4.49;100.00
34925;BME280;21130;51.728;8.748;2023-04-25T04:33:12;99743.47;;;4.49;100.00
34925;BME280;21130;51.728;8.748;2023-04-25T04:35:40;99752.78;;;4.48;100.00
34925;BME280;21130;51.728;8.748;2023-04-25T04:38:07;99756.75;;;4.52;100.00
34925;BME280;21130;51.728;8.748;2023-04-25T04:40:33;99755.50;;;4.48;100.00
34925;BME280;21130;51.728;8.748;2023-04-25T04:42:59;99760.81;;;4.50;100.00
34925;BME280;21130;51.728;8.748;2023-04-25T04:45:26;99759.50;;;4.52;100.00
34925;BME280;21130;51.728;8.748;2023-04-25T04:47:55;99768.81;;;4.51;100.00
34925;BME280;21130;51.728;8.748;2023-04-25T04:50:21;99767.75;;;4.52;100.00
34925;BME280;21130;51.728;8.748;2023-04-25T04:52:48;99776.22;;;4.51;100.00
34925;BME280;21130;51.728;8.748;2023-04-25T04:55:14;99781.06;;;4.49;100.00
34925;BME280;21130;51.728;8.748;2023-04-25T04:57:41;99779.38;;;4.54;100.00
34925;BME280;21130;51.728;8.748;2023-04-25T05:00:08;99788.06;;;4.51;100.00
34925;BME280;21130;51.728;8.748;2023-04-25T05:02:37;99787.19;;;4.51;100.00
34925;BME280;21130;51.728;8.748;2023-04-25T05:05:05;99789.28;;;4.55;100.00
34925;BME280;21130;51.728;8.748;2023-04-25T05:07:32;99791.03;;;4.50;100.00
34925;BME280;21130;51.728;8.748;2023-04-25T05:09:58;99798.34;;;4.56;100.00
34925;BME280;21130;51.728;8.748;2023-04-25T05:12:26;99803.66;;;4.58;100.00
34925;BME280;21130;51.728;8.748;2023-04-25T05:14:53;99806.59;;;4.56;100.00
34925;BME280;21130;51.728;8.748;2023-04-25T05:17:19;99808.75;;;4.54;100.00
34925;BME280;21130;51.728;8.748;2023-04-25T05:19:46;99806.22;;;4.52;100.00
34925;BME280;21130;51.728;8.748;2023-04-25T05:22:14;99811.72;;;4.52;100.00
34925;BME280;21130;51.728;8.748;2023-04-25T05:24:40;99812.16;;;4.49;100.00
34925;BME280;21130;51.728;8.748;2023-04-25T05:27:06;99814.75;;;4.44;100.00
34925;BME280;21130;51.728;8.748;2023-04-25T05:29:33;99817.66;;;4.49;100.00
34925;BME280;21130;51.728;8.748;2023-04-25T05:32:00;99824.63;;;4.52;100.00
34925;BME280;21130;51.728;8.748;2023-04-25T05:34:27;99818.28;;;4.51;100.00
34925;BME280;21130;51.728;8.748;2023-04-25T05:36:53;99820.25;;;4.44;100.00
34925;BME280;21130;51.728;8.748;2023-04-25T05:39:22;99818.09;;;4.46;100.00
34925;BME280;21130;51.728;8.748;2023-04-25T05:41:48;99820.59;;;4.54;100.00
34925;BME280;21130;51.728;8.748;2023-04-25T05:44:14;99834.16;;;4.49;100.00
34925;BME280;21130;51.728;8.748;2023-04-25T05:46:41;99832.88;;;4.52;100.00
34925;BME280;21130;51.728;8.748;2023-04-25T05:49:08;99837.69;;;4.57;100.00
34925;BME280;21130;51.728;8.748;2023-04-25T05:51:34;99833.66;;;4.59;100.00
34925;BME280;21130;51.728;8.748;2023-04-25T05:54:01;99830.69;;;4.61;100.00
34925;BME280;21130;51.728;8.748;2023-04-25T05:56:28;99839.53;;;4.63;100.00
34925;BME280;21130;51.728;8.748;2023-04-25T05:58:55;99849.03;;;4.67;100.00
34925;BME280;21130;51.728;8.748;2023-04-25T06:01:22;99854.47;;;4.73;100.00
34925;BME280;21130;51.728;8.748;2023-04-25T06:03:48;99857.19;;;4.80;100.00
34925;BME280;21130;51.728;8.748;2023-04-25T06:06:16;99856.34;;;4.80;100.00
34925;BME280;21130;51.728;8.748;2023-04-25T06:08:43;99860.09;;;4.85;100.00
34925;BME280;21130;51.728;8.748;2023-04-25T06:11:10;99862.84;;;4.85;100.00
34925;BME280;21130;51.728;8.748;2023-04-25T06:13:37;99858.34;;;4.91;100.00
34925;BME280;21130;51.728;8.748;2023-04-25T06:16:04;99856.06;;;4.88;100.00
34925;BME280;21130;51.728;8.748;2023-04-25T06:18:31;99853.75;;;4.85;100.00
34925;BME280;21130;51.728;8.748;2023-04-25T06:20:58;99854.59;;;4.85;100.00
34925;BME280;21130;51.728;8.748;2023-04-25T06:23:24;99849.66;;;4.94;100.00
34925;BME280;21130;51.728;8.748;2023-04-25T06:25:50;99859.81;;;4.93;100.00
34925;BME280;21130;51.728;8.748;2023-04-25T06:28:17;99862.69;;;5.05;100.00
34925;BME280;21130;51.728;8.748;2023-04-25T06:30:44;99859.81;;;5.18;100.00
34925;BME280;21130;51.728;8.748;2023-04-25T06:33:11;99859.34;;;5.22;100.00
34925;BME280;21130;51.728;8.748;2023-04-25T06:35:38;99855.03;;;5.32;100.00
34925;BME280;21130;51.728;8.748;2023-04-25T06:38:04;99866.66;;;5.34;100.00
34925;BME280;21130;51.728;8.748;2023-04-25T06:40:31;99863.78;;;5.48;100.00
34925;BME280;21130;51.728;8.748;2023-04-25T06:42:57;99865.59;;;5.35;100.00
34925;BME280;21130;51.728;8.748;2023-04-25T06:45:24;99868.19;;;5.30;100.00
34925;BME280;21130;51.728;8.748;2023-04-25T06:47:51;99868.03;;;5.44;100.00
34925;BME280;21130;51.728;8.748;2023-04-25T06:50:18;99877.38;;;5.43;100.00
34925;BME280;21130;51.728;8.748;2023-04-25T06:52:44;99865.44;;;5.30;100.00
34925;BME280;21130;51.728;8.748;2023-04-25T06:55:11;99877.84;;;5.39;100.00
34925;BME280;21130;51.728;8.748;2023-04-25T06:57:37;99876.47;;;5.49;100.00
34925;BME280;21130;51.728;8.748;2023-04-25T07:00:05;99882.28;;;5.59;100.00
34925;BME280;21130;51.728;8.748;2023-04-25T07:02:34;99878.31;;;5.73;100.00
34925;BME280;21130;51.728;8.748;2023-04-25T07:05:02;99887.81;;;5.77;100.00
34925;BME280;21130;51.728;8.748;2023-04-25T07:07:29;99895.00;;;5.78;100.00
34925;BME280;21130;51.728;8.748;2023-04-25T07:09:55;99881.38;;;5.83;100.00
34925;BME280;21130;51.728;8.748;2023-04-25T07:12:22;99888.53;;;6.10;100.00
34925;BME280;21130;51.728;8.748;2023-04-25T07:14:48;99890.53;;;6.02;100.00
34925;BME280;21130;51.728;8.748;2023-04-25T07:17:15;99896.75;;;5.73;100.00
34925;BME280;21130;51.728;8.748;2023-04-25T07:19:41;99893.31;;;5.77;100.00
34925;BME280;21130;51.728;8.748;2023-04-25T07:22:10;99893.84;;;5.86;100.00
34925;BME280;21130;51.728;8.748;2023-04-25T07:24:37;99899.59;;;5.84;100.00
34925;BME280;21130;51.728;8.748;2023-04-25T07:27:03;99895.03;;;5.97;100.00
34925;BME280;21130;51.728;8.748;2023-04-25T07:29:30;99895.09;;;5.90;100.00
34925;BME280;21130;51.728;8.748;2023-04-25T07:31:56;99897.22;;;5.88;100.00
34925;BME280;21130;51.728;8.748;2023-04-25T07:34:23;99904.22;;;6.09;100.00
34925;BME280;21130;51.728;8.748;2023-04-25T07:36:49;99900.41;;;6.10;100.00
34925;BME280;21130;51.728;8.748;2023-04-25T07:39:17;99904.97;;;6.16;100.00
34925;BME280;21130;51.728;8.748;2023-04-25T07:41:44;99904.75;;;6.18;100.00
34925;BME280;21130;51.728;8.748;2023-04-25T07:44:10;99912.94;;;6.06;100.00
34925;BME280;21130;51.728;8.748;2023-04-25T07:46:39;99912.94;;;6.24;100.00
34925;BME280;21130;51.728;8.748;2023-04-25T07:49:05;99914.28;;;6.52;100.00
34925;BME280;21130;51.728;8.748;2023-04-25T07:51:32;99907.00;;;6.39;100.00
34925;BME280;21130;51.728;8.748;2023-04-25T07:53:58;99910.22;;;6.55;100.00
34925;BME280;21130;51.728;8.748;2023-04-25T07:56:27;99917.94;;;6.46;100.00
34925;BME280;21130;51.728;8.748;2023-04-25T07:58:53;99920.38;;;6.54;100.00
34925;BME280;21130;51.728;8.748;2023-04-25T08:01:20;99917.81;;;6.41;100.00
34925;BME280;21130;51.728;8.748;2023-04-25T08:03:47;99911.53;;;6.52;100.00
34925;BME280;21130;51.728;8.748;2023-04-25T08:06:13;99916.66;;;6.79;100.00
34925;BME280;21130;51.728;8.748;2023-04-25T08:08:40;99917.41;;;6.86;100.00
34925;BME280;21130;51.728;8.748;2023-04-25T08:11:06;99924.41;;;7.00;100.00
34925;BME280;21130;51.728;8.748;2023-04-25T08:13:34;99927.44;;;7.10;100.00
34925;BME280;21130;51.728;8.748;2023-04-25T08:16:00;99924.84;;;6.97;100.00
34925;BME280;21130;51.728;8.748;2023-04-25T08:18:27;99930.19;;;7.22;100.00
34925;BME280;21130;51.728;8.748;2023-04-25T08:20:54;99934.56;;;7.30;100.00
34925;BME280;21130;51.728;8.748;2023-04-25T08:23:20;99943.72;;;7.12;100.00
34925;BME280;21130;51.728;8.748;2023-04-25T08:25:46;99944.72;;;7.18;100.00
34925;BME280;21130;51.728;8.748;2023-04-25T08:28:14;99949.75;;;7.21;100.00
34925;BME280;21130;51.728;8.748;2023-04-25T08:30:42;99946.78;;;7.34;100.00
34925;BME280;21130;51.728;8.748;2023-04-25T08:33:09;99944.66;;;7.60;100.00
34925;BME280;21130;51.728;8.748;2023-04-25T08:35:36;99948.28;;;7.95;100.00
34925;BME280;21130;51.728;8.748;2023-04-25T08:38:02;99960.88;;;7.68;100.00
34925;BME280;21130;51.728;8.748;2023-04-25T08:40:31;99956.56;;;7.95;100.00
34925;BME280;21130;51.728;8.748;2023-04-25T08:43:02;99958.00;;;7.98;100.00
34925;BME280;21130;51.728;8.748;2023-04-25T08:45:31;99961.81;;;7.62;100.00
34925;BME280;21130;51.728;8.748;2023-04-25T08:48:00;99961.47;;;8.05;100.00
34925;BME280;21130;51.728;8.748;2023-04-25T08:50:27;99972.88;;;8.20;100.00
34925;BME280;21130;51.728;8.748;2023-04-25T08:52:54;99967.31;;;8.32;100.00
34925;BME280;21130;51.728;8.748;2023-04-25T08:55:22;99974.91;;;8.01;100.00
34925;BME280;21130;51.728;8.748;2023-04-25T08:57:49;99985.00;;;8.43;100.00
34925;BME280;21130;51.728;8.748;2023-04-25T09:00:16;99983.53;;;8.52;100.00
34925;BME280;21130;51.728;8.748;2023-04-25T09:02:43;99994.75;;;8.46;100.00
34925;BME280;21130;51.728;8.748;2023-04-25T09:05:12;99997.88;;;8.26;100.00
34925;BME280;21130;51.728;8.748;2023-04-25T09:07:39;99998.97;;;8.13;100.00
34925;BME280;21130;51.728;8.748;2023-04-25T09:10:05;100000.88;;;8.12;100.00
34925;BME280;21130;51.728;8.748;2023-04-25T09:12:32;100006.88;;;7.86;100.00
34925;BME280;21130;51.728;8.748;2023-04-25T09:15:05;100004.59;;;8.18;99.22
34925;BME280;21130;51.728;8.748;2023-04-25T09:17:32;100015.41;;;8.31;97.46
34925;BME280;21130;51.728;8.748;2023-04-25T09:20:06;100007.59;;;8.52;88.63
34925;BME280;21130;51.728;8.748;2023-04-25T09:22:35;100010.22;;;8.99;82.46
34925;BME280;21130;51.728;8.748;2023-04-25T09:25:04;100013.63;;;9.63;87.31
34925;BME280;21130;51.728;8.748;2023-04-25T09:27:33;100020.75;;;9.14;87.14
34925;BME280;21130;51.728;8.748;2023-04-25T09:30:00;100024.94;;;9.62;80.22
34925;BME280;21130;51.728;8.748;2023-04-25T09:32:26;100016.63;;;9.62;70.80
34925;BME280;21130;51.728;8.748;2023-04-25T09:34:55;100022.75;;;8.90;76.71
34925;BME280;21130;51.728;8.748;2023-04-25T09:37:23;100028.22;;;8.73;92.15
34925;BME280;21130;51.728;8.748;2023-04-25T09:39:57;100036.41;;;8.68;89.52
34925;BME280;21130;51.728;8.748;2023-04-25T09:42:24;100029.13;;;8.38;91.12
34925;BME280;21130;51.728;8.748;2023-04-25T09:44:52;100035.97;;;8.12;90.91
34925;BME280;21130;51.728;8.748;2023-04-25T09:47:19;100043.06;;;8.08;93.53
34925;BME280;21130;51.728;8.748;2023-04-25T09:49:49;100039.34;;;8.26;92.40
34925;BME280;21130;51.728;8.748;2023-04-25T09:52:16;100039.72;;;8.41;91.22
34925;BME280;21130;51.728;8.748;2023-04-25T09:54:44;100041.91;;;8.79;100.00
34925;BME280;21130;51.728;8.748;2023-04-25T09:57:13;100035.31;;;9.38;89.72
34925;BME280;21130;51.728;8.748;2023-04-25T09:59:43;100039.72;;;10.35;74.71
34925;BME280;21130;51.728;8.748;2023-04-25T10:02:11;100043.44;;;11.29;67.48
34925;BME280;21130;51.728;8.748;2023-04-25T10:04:38;100041.97;;;10.77;58.62
34925;BME280;21130;51.728;8.748;2023-04-25T10:07:06;100038.91;;;11.22;58.12
34925;BME280;21130;51.728;8.748;2023-04-25T10:09:33;100041.75;;;11.28;61.05
34925;BME280;21130;51.728;8.748;2023-04-25T10:12:02;100051.66;;;10.19;59.59
34925;BME280;21130;51.728;8.748;2023-04-25T10:14:31;100047.81;;;9.86;57.66
34925;BME280;21130;51.728;8.748;2023-04-25T10:16:58;100052.28;;;9.13;57.91
34925;BME280;21130;51.728;8.748;2023-04-25T10:19:27;100049.91;;;9.04;63.43
34925;BME280;21130;51.728;8.748;2023-04-25T10:22:01;100056.47;;;9.15;72.52
34925;BME280;21130;51.728;8.748;2023-04-25T10:24:28;100059.00;;;8.88;60.44
34925;BME280;21130;51.728;8.748;2023-04-25T10:26:55;100062.50;;;8.72;61.33
34925;BME280;21130;51.728;8.748;2023-04-25T10:29:23;100058.56;;;8.56;61.76
34925;BME280;21130;51.728;8.748;2023-04-25T10:31:51;100047.94;;;8.88;65.20
34925;BME280;21130;51.728;8.748;2023-04-25T10:34:19;100048.78;;;9.46;64.09
34925;BME280;21130;51.728;8.748;2023-04-25T10:36:49;100048.66;;;9.86;59.16
34925;BME280;21130;51.728;8.748;2023-04-25T10:39:22;100050.97;;;9.78;57.49
34925;BME280;21130;51.728;8.748;2023-04-25T10:41:53;100051.81;;;9.61;56.14
34925;BME280;21130;51.728;8.748;2023-04-25T10:44:19;100054.78;;;9.43;54.10
34925;BME280;21130;51.728;8.748;2023-04-25T10:47:07;100058.91;;;9.40;57.53
34925;BME280;21130;51.728;8.748;2023-04-25T10:49:35;100071.09;;;9.11;58.93
34925;BME280;21130;51.728;8.748;2023-04-25T10:52:19;100062.38;;;8.78;59.35
34925;BME280;21130;51.728;8.748;2023-04-25T10:54:52;100069.13;;;8.23;60.39
34925;BME280;21130;51.728;8.748;2023-04-25T10:57:29;100061.06;;;8.22;60.84
34925;BME280;21130;51.728;8.748;2023-04-25T10:59:58;100067.94;;;8.31;60.92
34925;BME280;21130;51.728;8.748;2023-04-25T11:02:27;100070.34;;;8.28;63.45
34925;BME280;21130;51.728;8.748;2023-04-25T11:04:54;100070.22;;;8.11;68.74
34925;BME280;21130;51.728;8.748;2023-04-25T11:07:26;100085.00;;;8.28;66.32
34925;BME280;21130;51.728;8.748;2023-04-25T11:09:55;100071.06;;;8.11;64.68
34925;BME280;21130;51.728;8.748;2023-04-25T11:12:21;100067.94;;;8.31;69.04
34925;BME280;21130;51.728;8.748;2023-04-25T11:14:47;100080.94;;;8.31;75.67
34925;BME280;21130;51.728;8.748;2023-04-25T11:17:14;100066.84;;;8.32;82.63
34925;BME280;21130;51.728;8.748;2023-04-25T11:19:42;100077.44;;;8.35;97.77
34925;BME280;21130;51.728;8.748;2023-04-25T11:22:10;100084.19;;;8.39;93.79
34925;BME280;21130;51.728;8.748;2023-04-25T11:24:36;100076.94;;;8.38;89.82
34925;BME280;21130;51.728;8.748;2023-04-25T11:27:04;100080.09;;;8.54;87.21
34925;BME280;21130;51.728;8.748;2023-04-25T11:29:32;100072.34;;;8.91;79.42
34925;BME280;21130;51.728;8.748;2023-04-25T11:32:00;100082.47;;;9.43;83.14
34925;BME280;21130;51.728;8.748;2023-04-25T11:34:28;100078.72;;;10.11;59.11
34925;BME280;21130;51.728;8.748;2023-04-25T11:36:57;100084.28;;;10.11;56.07
34925;BME280;21130;51.728;8.748;2023-04-25T11:39:24;100084.75;;;9.74;55.47
34925;BME280;21130;51.728;8.748;2023-04-25T11:41:51;100088.75;;;9.67;54.95
34925;BME280;21130;51.728;8.748;2023-04-25T11:44:18;100080.66;;;10.28;56.00
34925;BME280;21130;51.728;8.748;2023-04-25T11:46:45;100086.72;;;11.02;56.82
34925;BME280;21130;51.728;8.748;2023-04-25T11:49:12;100089.91;;;11.38;52.48
34925;BME280;21130;51.728;8.748;2023-04-25T11:51:39;100082.75;;;10.37;52.97
34925;BME280;21130;51.728;8.748;2023-04-25T11:54:07;100082.53;;;10.39;51.23
34925;BME280;21130;51.728;8.748;2023-04-25T11:56:34;100086.06;;;10.34;54.07
34925;BME280;21130;51.728;8.748;2023-04-25T11:59:01;100094.69;;;10.04;51.87
34925;BME280;21130;51.728;8.748;2023-04-25T12:01:29;100086.78;;;9.96;53.46
34925;BME280;21130;51.728;8.748;2023-04-25T12:03:56;100090.00;;;9.59;54.93
34925;BME280;21130;51.728;8.748;2023-04-25T12:06:26;100095.13;;;9.50;58.74
34925;BME280;21130;51.728;8.748;2023-04-25T12:09:00;100104.13;;;8.77;56.78
34925;BME280;21130;51.728;8.748;2023-04-25T12:11:31;100101.94;;;8.91;58.55
34925;BME280;21130;51.728;8.748;2023-04-25T12:14:02;100102.63;;;8.98;59.98
34925;BME280;21130;51.728;8.748;2023-04-25T12:16:28;100098.56;;;8.89;57.24
34925;BME280;21130;51.728;8.748;2023-04-25T12:18:55;100095.19;;;8.86;57.96
34925;BME280;21130;51.728;8.748;2023-04-25T12:21:22;100097.19;;;9.43;56.92
34925;BME280;21130;51.728;8.748;2023-04-25T12:23:48;100105.28;;;9.62;54.52
34925;BME280;21130;51.728;8.748;2023-04-25T12:26:15;100108.31;;;9.60;52.90
34925;BME280;21130;51.728;8.748;2023-04-25T12:28:46;100104.44;;;9.33;53.59
34925;BME280;21130;51.728;8.748;2023-04-25T12:31:13;100115.53;;;9.61;54.07
34925;BME280;21130;51.728;8.748;2023-04-25T12:33:41;100108.81;;;9.57;54.25
34925;BME280;21130;51.728;8.748;2023-04-25T12:36:12;100113.41;;;9.51;57.07
34925;BME280;21130;51.728;8.748;2023-04-25T12:38:40;100105.84;;;9.18;54.99
34925;BME280;21130;51.728;8.748;2023-04-25T12:41:08;100113.78;;;9.15;56.37
34925;BME280;21130;51.728;8.748;2023-04-25T12:43:34;100123.94;;;10.12;57.25
34925;BME280;21130;51.728;8.748;2023-04-25T12:46:02;100111.22;;;10.67;52.60
34925;BME280;21130;51.728;8.748;2023-04-25T12:48:29;100118.72;;;10.66;54.64
34925;BME280;21130;51.728;8.748;2023-04-25T12:50:55;100107.66;;;11.32;55.59
34925;BME280;21130;51.728;8.748;2023-04-25T12:53:22;100116.63;;;10.95;51.56
34925;BME280;21130;51.728;8.748;2023-04-25T12:55:49;100111.66;;;10.97;51.17
34925;BME280;21130;51.728;8.748;2023-04-25T12:58:17;100114.75;;;11.45;51.82
34925;BME280;21130;51.728;8.748;2023-04-25T13:00:45;100103.16;;;11.53;49.26